Time;durP1;ratioP1;P1;durP2;ratioP2;P2;SDS_P1;SDS_P2;PMS_P1;PMS_P2;Temp;Humidity;BMP_temperature;BMP_pressure;BME280_temperature;BME280_humidity;BME280_pressure;Samples;Min_cycle;Max_cycle;Signal;HPM_P1;HPM_P2
2020/12/17 00:02:12;;;;;;;7.67;4.40;;;;;;;;;;5094876;28;20020;-57
2020/12/17 00:04:37;;;;;;;6.50;4.57;;;;;;;;;;5094189;28;20122;-56
2020/12/17 00:07:03;;;;;;;6.57;4.17;;;;;;;;;;5093837;28;20481;-56
2020/12/17 00:09:28;;;;;;;6.40;4.37;;;;;;;;;;5091570;28;20537;-55
2020/12/17 00:11:56;;;;;;;5.23;3.57;;;;;;;;;;5094857;28;20069;-56
2020/12/17 00:14:22;;;;;;;6.73;4.20;;;;;;;;;;5093893;28;20031;-57
2020/12/17 00:16:47;;;;;;;6.07;4.30;;;;;;;;;;5094460;28;20012;-56
2020/12/17 00:19:12;;;;;;;6.70;4.57;;;;;;;;;;5091141;28;20509;-57
2020/12/17 00:21:37;;;;;;;6.07;4.47;;;;;;;;;;5094650;28;20050;-55
2020/12/17 00:24:03;;;;;;;6.03;3.93;;;;;;;;;;5093258;28;20115;-56
2020/12/17 00:26:28;;;;;;;6.57;3.90;;;;;;;;;;5094505;28;20043;-56
2020/12/17 00:28:54;;;;;;;8.17;4.43;;;;;;;;;;5091400;28;20024;-57
2020/12/17 00:31:20;;;;;;;7.73;4.70;;;;;;;;;;5094329;28;20520;-57
2020/12/17 00:33:45;;;;;;;8.07;4.20;;;;;;;;;;5093678;28;20111;-59
2020/12/17 00:36:11;;;;;;;7.80;5.03;;;;;;;;;;5093734;28;20036;-56
2020/12/17 00:38:36;;;;;;;7.10;4.73;;;;;;;;;;5089262;28;20468;-57
2020/12/17 00:41:01;;;;;;;6.40;4.53;;;;;;;;;;5093854;28;20024;-57
2020/12/17 00:43:26;;;;;;;6.50;4.50;;;;;;;;;;5091935;28;20024;-57
2020/12/17 00:45:52;;;;;;;6.30;4.10;;;;;;;;;;5094028;28;20023;-57
2020/12/17 00:48:17;;;;;;;6.40;4.03;;;;;;;;;;5090739;28;20035;-58
2020/12/17 00:50:42;;;;;;;6.00;4.70;;;;;;;;;;5093102;28;20024;-53
2020/12/17 00:53:07;;;;;;;6.67;4.50;;;;;;;;;;5093261;28;20020;-54
2020/12/17 00:55:33;;;;;;;7.07;4.57;;;;;;;;;;5093672;28;20036;-58
2020/12/17 00:57:58;;;;;;;7.07;4.43;;;;;;;;;;5093286;28;20119;-57
2020/12/17 01:00:23;;;;;;;6.57;4.40;;;;;;;;;;5090994;28;20032;-57
2020/12/17 01:02:48;;;;;;;5.90;3.80;;;;;;;;;;5083617;28;20032;-57
2020/12/17 01:05:13;;;;;;;7.13;4.27;;;;;;;;;;5093152;28;20051;-57
2020/12/17 01:07:39;;;;;;;6.97;3.93;;;;;;;;;;5092994;28;20501;-57
2020/12/17 01:10:04;;;;;;;6.70;4.00;;;;;;;;;;5088758;28;20016;-58
2020/12/17 01:12:31;;;;;;;5.80;3.97;;;;;;;;;;5093382;28;20028;-58
2020/12/17 01:14:56;;;;;;;7.87;4.47;;;;;;;;;;5093243;28;20024;-57
2020/12/17 01:17:21;;;;;;;6.00;3.67;;;;;;;;;;5092845;28;20439;-58
2020/12/17 01:19:46;;;;;;;8.50;4.30;;;;;;;;;;5090511;28;20022;-57
2020/12/17 01:22:11;;;;;;;7.83;4.00;;;;;;;;;;5093111;28;20108;-57
2020/12/17 01:24:37;;;;;;;6.80;4.00;;;;;;;;;;5092629;28;20071;-56
2020/12/17 01:27:02;;;;;;;6.27;4.00;;;;;;;;;;5092444;28;20050;-56
2020/12/17 01:29:27;;;;;;;6.33;4.17;;;;;;;;;;5089485;28;20042;-57
2020/12/17 01:31:56;;;;;;;6.47;4.03;;;;;;;;;;5093262;28;20016;-58
2020/12/17 01:34:22;;;;;;;7.50;4.73;;;;;;;;;;5092509;28;20467;-56
2020/12/17 01:36:49;;;;;;;8.80;4.87;;;;;;;;;;5086813;28;20085;-56
2020/12/17 01:39:15;;;;;;;8.30;4.73;;;;;;;;;;5083738;28;20020;-54
2020/12/17 01:41:40;;;;;;;8.33;5.00;;;;;;;;;;5093101;28;20026;-56
2020/12/17 01:44:05;;;;;;;6.77;4.30;;;;;;;;;;5077872;28;20015;-56
2020/12/17 01:46:30;;;;;;;8.30;4.60;;;;;;;;;;5092732;28;20412;-52
2020/12/17 01:48:59;;;;;;;7.17;5.30;;;;;;;;;;5089624;28;20475;-54
2020/12/17 01:51:24;;;;;;;7.13;4.37;;;;;;;;;;5092848;28;20145;-57
2020/12/17 01:53:51;;;;;;;7.20;4.30;;;;;;;;;;5092108;28;20126;-55
2020/12/17 01:56:21;;;;;;;5.97;4.27;;;;;;;;;;5092605;28;20102;-57
2020/12/17 01:58:52;;;;;;;6.63;4.10;;;;;;;;;;5089282;28;20467;-55
2020/12/17 02:01:18;;;;;;;7.63;4.33;;;;;;;;;;5092760;28;20052;-56
2020/12/17 02:03:43;;;;;;;7.17;4.63;;;;;;;;;;5092091;28;20447;-56
2020/12/17 02:06:09;;;;;;;5.43;3.70;;;;;;;;;;5092442;28;20109;-56
2020/12/17 02:08:38;;;;;;;5.87;3.50;;;;;;;;;;5089112;28;20571;-55
2020/12/17 02:11:04;;;;;;;7.60;4.10;;;;;;;;;;5092221;28;20020;-56
2020/12/17 02:13:33;;;;;;;5.77;3.87;;;;;;;;;;5092562;28;20103;-57
2020/12/17 02:15:59;;;;;;;5.63;4.00;;;;;;;;;;5092415;28;20048;-57
2020/12/17 02:18:25;;;;;;;7.27;4.77;;;;;;;;;;5089151;28;20518;-56
2020/12/17 02:20:50;;;;;;;6.63;4.33;;;;;;;;;;5091035;28;20026;-57
2020/12/17 02:23:15;;;;;;;7.30;4.73;;;;;;;;;;5084594;28;20041;-56
2020/12/17 02:25:41;;;;;;;6.93;4.37;;;;;;;;;;5091599;28;20416;-57
2020/12/17 02:28:06;;;;;;;8.17;4.57;;;;;;;;;;5091040;28;20020;-56
2020/12/17 02:30:31;;;;;;;6.30;4.37;;;;;;;;;;5089261;28;20020;-58
2020/12/17 02:32:56;;;;;;;6.40;4.73;;;;;;;;;;5092424;28;20482;-56
2020/12/17 02:35:22;;;;;;;7.53;4.70;;;;;;;;;;5091629;28;20100;-54
2020/12/17 02:37:47;;;;;;;6.43;4.00;;;;;;;;;;5071599;28;20111;-55
2020/12/17 02:40:12;;;;;;;7.13;4.33;;;;;;;;;;5082272;28;20020;-54
2020/12/17 02:42:37;;;;;;;5.33;4.07;;;;;;;;;;5088850;28;20031;-58
2020/12/17 02:45:03;;;;;;;5.97;3.63;;;;;;;;;;5082533;28;20517;-56
2020/12/17 02:47:28;;;;;;;5.77;3.70;;;;;;;;;;5094579;28;20141;-56
2020/12/17 02:49:53;;;;;;;6.10;4.40;;;;;;;;;;5093344;28;20048;-56
2020/12/17 02:52:18;;;;;;;6.83;3.93;;;;;;;;;;5095797;28;20107;-57
2020/12/17 02:54:43;;;;;;;5.90;4.17;;;;;;;;;;5094507;28;20368;-57
2020/12/17 02:57:09;;;;;;;6.10;3.73;;;;;;;;;;5095660;28;20386;-57
2020/12/17 02:59:34;;;;;;;7.57;4.23;;;;;;;;;;5092822;28;20024;-58
2020/12/17 03:01:59;;;;;;;7.53;4.03;;;;;;;;;;5095198;28;20020;-58
2020/12/17 03:04:24;;;;;;;7.13;4.37;;;;;;;;;;5095908;28;20457;-58
2020/12/17 03:06:50;;;;;;;7.07;4.53;;;;;;;;;;5095729;28;20572;-59
2020/12/17 03:09:16;;;;;;;7.40;4.43;;;;;;;;;;5092281;28;20022;-56
2020/12/17 03:11:41;;;;;;;9.67;5.03;;;;;;;;;;5095851;28;20566;-55
2020/12/17 03:14:06;;;;;;;8.70;5.13;;;;;;;;;;5095823;28;20013;-58
2020/12/17 03:16:32;;;;;;;9.50;5.27;;;;;;;;;;5095499;28;20074;-54
2020/12/17 03:18:57;;;;;;;8.67;5.10;;;;;;;;;;5092502;28;20035;-58
2020/12/17 03:21:23;;;;;;;10.33;5.40;;;;;;;;;;5096055;28;20016;-58
2020/12/17 03:23:48;;;;;;;7.83;5.33;;;;;;;;;;5095040;28;20036;-58
2020/12/17 03:26:14;;;;;;;9.40;5.70;;;;;;;;;;5095515;28;20016;-58
2020/12/17 03:28:39;;;;;;;9.83;6.00;;;;;;;;;;5092155;28;20035;-58
2020/12/17 03:31:04;;;;;;;7.50;5.10;;;;;;;;;;5095348;28;20506;-58
2020/12/17 03:33:30;;;;;;;10.37;5.47;;;;;;;;;;5095491;28;20052;-59
2020/12/17 03:35:55;;;;;;;9.40;5.63;;;;;;;;;;5094944;28;20027;-57
2020/12/17 03:38:20;;;;;;;8.50;5.90;;;;;;;;;;5071332;28;20335;-58
2020/12/17 03:40:45;;;;;;;9.67;5.93;;;;;;;;;;5092192;28;20016;-58
2020/12/17 03:43:11;;;;;;;9.40;6.30;;;;;;;;;;5081695;28;20020;-56
2020/12/17 03:45:36;;;;;;;11.03;6.17;;;;;;;;;;5082468;28;20020;-56
2020/12/17 03:48:01;;;;;;;9.00;5.50;;;;;;;;;;5094430;28;20024;-57
2020/12/17 03:50:26;;;;;;;8.23;4.70;;;;;;;;;;5092501;28;20019;-56
2020/12/17 03:52:51;;;;;;;10.40;6.23;;;;;;;;;;5094185;28;20052;-57
2020/12/17 03:55:17;;;;;;;9.03;5.73;;;;;;;;;;5094822;28;20757;-58
2020/12/17 03:57:42;;;;;;;8.27;5.00;;;;;;;;;;5094591;28;20032;-58
2020/12/17 04:00:07;;;;;;;10.17;5.73;;;;;;;;;;5091726;28;20024;-58
2020/12/17 04:02:33;;;;;;;10.20;6.67;;;;;;;;;;5094636;28;20027;-57
2020/12/17 04:04:58;;;;;;;9.47;6.43;;;;;;;;;;5094656;28;20016;-58
2020/12/17 04:07:23;;;;;;;12.70;6.67;;;;;;;;;;5094462;28;20035;-58
2020/12/17 04:09:48;;;;;;;9.07;6.43;;;;;;;;;;5091655;28;20030;-59
2020/12/17 04:12:14;;;;;;;9.47;6.10;;;;;;;;;;5094699;28;20163;-57
2020/12/17 04:14:40;;;;;;;9.40;5.80;;;;;;;;;;5094739;28;20063;-56
2020/12/17 04:17:05;;;;;;;9.37;6.07;;;;;;;;;;5086466;28;20032;-58
2020/12/17 04:19:30;;;;;;;8.80;6.03;;;;;;;;;;5086329;28;20020;-56
2020/12/17 04:21:55;;;;;;;9.47;5.93;;;;;;;;;;5094435;28;20466;-57
2020/12/17 04:24:20;;;;;;;9.40;6.00;;;;;;;;;;5092446;28;20490;-58
2020/12/17 04:26:49;;;;;;;9.93;5.93;;;;;;;;;;5094324;28;20419;-58
2020/12/17 04:29:14;;;;;;;8.93;5.73;;;;;;;;;;5091011;28;20378;-58
2020/12/17 04:31:40;;;;;;;9.13;5.57;;;;;;;;;;5093887;28;20289;-57
2020/12/17 04:34:05;;;;;;;7.87;4.73;;;;;;;;;;5093931;28;20558;-56
2020/12/17 04:36:31;;;;;;;7.93;4.83;;;;;;;;;;5093906;28;20526;-56
2020/12/17 04:38:57;;;;;;;7.63;5.50;;;;;;;;;;5090763;28;20383;-58
2020/12/17 04:41:24;;;;;;;8.23;5.00;;;;;;;;;;5094087;28;20016;-57
2020/12/17 04:43:49;;;;;;;10.57;5.87;;;;;;;;;;5078318;28;20020;-58
2020/12/17 04:46:17;;;;;;;8.53;5.37;;;;;;;;;;5081086;28;20020;-58
2020/12/17 04:48:45;;;;;;;9.27;5.70;;;;;;;;;;5090643;28;20020;-57
2020/12/17 04:51:10;;;;;;;8.47;5.23;;;;;;;;;;5093613;28;20138;-57
2020/12/17 04:53:36;;;;;;;6.80;4.53;;;;;;;;;;5092424;28;20110;-56
2020/12/17 04:56:02;;;;;;;8.80;4.87;;;;;;;;;;5093394;28;20039;-55
2020/12/17 04:58:27;;;;;;;8.00;4.90;;;;;;;;;;5090594;28;20024;-58
2020/12/17 05:00:54;;;;;;;8.13;5.03;;;;;;;;;;5093893;28;20531;-57
2020/12/17 05:03:21;;;;;;;8.37;5.60;;;;;;;;;;5093534;28;20047;-56
2020/12/17 05:05:51;;;;;;;7.20;4.83;;;;;;;;;;5092631;28;20086;-58
2020/12/17 05:08:16;;;;;;;8.87;4.93;;;;;;;;;;5084036;28;20422;-60
2020/12/17 05:10:41;;;;;;;8.07;5.27;;;;;;;;;;5092705;28;20024;-57
2020/12/17 05:13:07;;;;;;;7.67;4.57;;;;;;;;;;5093466;28;20059;-57
2020/12/17 05:15:32;;;;;;;7.97;4.97;;;;;;;;;;5093016;28;20107;-57
2020/12/17 05:17:57;;;;;;;8.57;4.87;;;;;;;;;;5092978;28;20351;-53
2020/12/17 05:20:22;;;;;;;8.20;4.63;;;;;;;;;;5089785;28;20097;-56
2020/12/17 05:22:48;;;;;;;9.20;5.57;;;;;;;;;;5092473;28;20020;-56
2020/12/17 05:25:14;;;;;;;8.63;6.00;;;;;;;;;;5086680;28;20027;-56
2020/12/17 05:27:40;;;;;;;8.53;5.57;;;;;;;;;;5089252;28;20020;-56
2020/12/17 05:30:06;;;;;;;9.10;4.53;;;;;;;;;;5089845;28;20023;-57
2020/12/17 05:32:31;;;;;;;10.03;5.30;;;;;;;;;;5093313;28;20016;-58
2020/12/17 05:34:56;;;;;;;8.53;5.27;;;;;;;;;;5093172;28;20016;-57
2020/12/17 05:37:24;;;;;;;10.93;5.77;;;;;;;;;;5092075;28;20024;-56
2020/12/17 05:39:50;;;;;;;9.00;5.37;;;;;;;;;;5089964;28;20048;-58
2020/12/17 05:42:15;;;;;;;10.57;5.83;;;;;;;;;;5088974;28;20481;-56
2020/12/17 05:44:40;;;;;;;8.70;5.37;;;;;;;;;;5087012;28;20016;-55
2020/12/17 05:47:11;;;;;;;12.67;5.37;;;;;;;;;;5092428;28;20032;-56
2020/12/17 05:49:36;;;;;;;9.30;5.67;;;;;;;;;;5089275;28;20619;-54
2020/12/17 05:52:28;;;;;;;8.60;6.07;;;;;;;;;;5092799;28;20012;-58
2020/12/17 05:54:53;;;;;;;9.80;6.20;;;;;;;;;;5088813;28;20035;-56
2020/12/17 05:57:18;;;;;;;8.77;5.63;;;;;;;;;;5092151;28;20023;-57
2020/12/17 05:59:56;;;;;;;11.10;5.53;;;;;;;;;;5089629;28;20026;-58
2020/12/17 06:02:25;;;;;;;9.37;6.20;;;;;;;;;;5092317;28;20020;-56
2020/12/17 06:05:10;;;;;;;10.73;6.20;;;;;;;;;;5092453;28;20020;-56
2020/12/17 06:07:38;;;;;;;12.80;6.43;;;;;;;;;;5090612;28;20024;-55
2020/12/17 06:10:05;;;;;;;11.33;6.27;;;;;;;;;;5089053;28;20561;-55
2020/12/17 06:12:32;;;;;;;12.97;7.50;;;;;;;;;;5092548;28;20026;-56
2020/12/17 06:14:59;;;;;;;11.37;6.63;;;;;;;;;;5091281;28;20049;-57
2020/12/17 06:17:25;;;;;;;10.23;6.57;;;;;;;;;;5088831;28;20462;-57
2020/12/17 06:19:51;;;;;;;11.60;6.07;;;;;;;;;;5089216;28;20398;-58
2020/12/17 06:22:17;;;;;;;12.57;7.13;;;;;;;;;;5082123;28;20031;-57
2020/12/17 06:24:42;;;;;;;14.07;7.20;;;;;;;;;;5084792;28;20063;-56
2020/12/17 06:27:08;;;;;;;10.83;6.10;;;;;;;;;;5090203;28;20463;-58
2020/12/17 06:29:36;;;;;;;12.37;6.00;;;;;;;;;;5089254;28;20012;-58
2020/12/17 06:32:02;;;;;;;12.80;5.90;;;;;;;;;;5092114;28;20060;-58
2020/12/17 06:34:36;;;;;;;13.10;7.13;;;;;;;;;;5082145;28;20028;-53
2020/12/17 06:37:03;;;;;;;13.00;6.73;;;;;;;;;;5078047;28;20028;-54
2020/12/17 06:39:28;;;;;;;10.30;5.83;;;;;;;;;;5088819;28;20027;-56
2020/12/17 06:41:53;;;;;;;9.40;5.33;;;;;;;;;;5092656;28;20146;-55
2020/12/17 06:44:28;;;;;;;15.73;6.43;;;;;;;;;;5092167;28;20146;-58
2020/12/17 06:46:55;;;;;;;9.45;6.18;;;;;;;;;;5092489;28;20020;-57
2020/12/17 06:49:22;;;;;;;12.07;6.90;;;;;;;;;;5089035;28;20016;-58
2020/12/17 06:51:59;;;;;;;11.47;6.50;;;;;;;;;;5092044;28;20055;-57
2020/12/17 06:54:24;;;;;;;11.67;7.03;;;;;;;;;;5091939;28;20505;-59
2020/12/17 06:57:02;;;;;;;12.57;7.03;;;;;;;;;;5091031;28;20024;-58
2020/12/17 06:59:28;;;;;;;12.33;6.67;;;;;;;;;;5089223;28;20024;-54
2020/12/17 07:01:53;;;;;;;12.63;7.53;;;;;;;;;;5092945;28;20023;-57
2020/12/17 07:04:37;;;;;;;12.07;7.53;;;;;;;;;;5091384;28;20023;-58
2020/12/17 07:07:15;;;;;;;11.93;6.57;;;;;;;;;;5071262;28;20028;-58
2020/12/17 07:09:40;;;;;;;11.73;7.70;;;;;;;;;;5068691;28;20418;-54
2020/12/17 07:12:06;;;;;;;13.13;7.57;;;;;;;;;;5090760;28;20087;-57
2020/12/17 07:14:31;;;;;;;13.37;7.83;;;;;;;;;;5091112;28;20012;-57
2020/12/17 07:16:58;;;;;;;14.13;7.40;;;;;;;;;;5079360;28;20375;-57
2020/12/17 07:19:26;;;;;;;13.37;7.73;;;;;;;;;;5088682;28;20027;-57
2020/12/17 07:21:53;;;;;;;13.93;7.87;;;;;;;;;;5091573;28;20146;-55
2020/12/17 07:24:20;;;;;;;13.87;7.57;;;;;;;;;;5091340;28;20094;-54
2020/12/17 07:26:45;;;;;;;17.47;8.43;;;;;;;;;;5086834;28;20111;-58
2020/12/17 07:29:11;;;;;;;15.07;8.47;;;;;;;;;;5091347;28;20134;-56
2020/12/17 07:31:36;;;;;;;15.33;8.63;;;;;;;;;;5093855;28;20012;-55
2020/12/17 07:34:13;;;;;;;18.07;9.10;;;;;;;;;;5095081;28;20028;-56
2020/12/17 07:36:47;;;;;;;14.17;7.43;;;;;;;;;;5095134;28;20039;-56
2020/12/17 07:39:13;;;;;;;14.00;8.45;;;;;;;;;;5091595;28;20076;-55
2020/12/17 07:41:38;;;;;;;13.30;8.00;;;;;;;;;;5094979;28;20103;-53
2020/12/17 07:44:03;;;;;;;14.50;8.60;;;;;;;;;;5094554;28;20099;-53
2020/12/17 07:46:33;;;;;;;13.47;7.70;;;;;;;;;;5094768;28;20011;-53
2020/12/17 07:48:58;;;;;;;15.00;7.83;;;;;;;;;;5092058;28;20500;-57
2020/12/17 07:51:30;;;;;;;15.13;7.47;;;;;;;;;;5095258;28;20017;-54
2020/12/17 07:53:56;;;;;;;15.33;8.23;;;;;;;;;;5093129;28;20028;-56
2020/12/17 07:56:22;;;;;;;13.97;8.33;;;;;;;;;;5093762;28;20031;-55
2020/12/17 07:58:48;;;;;;;14.63;9.05;;;;;;;;;;5091066;28;20020;-55
2020/12/17 08:01:14;;;;;;;13.50;7.80;;;;;;;;;;5094516;28;20478;-55
2020/12/17 08:03:49;;;;;;;14.50;8.33;;;;;;;;;;5093750;28;20087;-56
2020/12/17 08:06:14;;;;;;;;;;;;;;;;;;5094976;28;20020;-53
2020/12/17 08:08:39;;;;;;;13.63;7.82;;;;;;;;;;5090808;28;19966;-54
2020/12/17 08:11:05;;;;;;;13.57;8.40;;;;;;;;;;5094488;28;20054;-54
2020/12/17 08:13:31;;;;;;;13.03;7.97;;;;;;;;;;5094095;28;20030;-55
2020/12/17 08:15:56;;;;;;;14.70;7.95;;;;;;;;;;5094621;28;20020;-55
2020/12/17 08:18:22;;;;;;;15.93;8.60;;;;;;;;;;5090601;28;20024;-56
2020/12/17 08:20:48;;;;;;;14.23;8.05;;;;;;;;;;5092575;28;20024;-56
2020/12/17 08:23:18;;;;;;;29.52;9.02;;;;;;;;;;5093759;28;20047;-57
2020/12/17 08:25:44;;;;;;;15.90;8.23;;;;;;;;;;5082206;28;20066;-56
2020/12/17 08:28:09;;;;;;;12.98;7.40;;;;;;;;;;5089505;28;20020;-57
2020/12/17 08:30:35;;;;;;;13.57;7.63;;;;;;;;;;5092241;28;20107;-56
2020/12/17 08:33:00;;;;;;;13.32;7.97;;;;;;;;;;5093941;28;20070;-55
2020/12/17 08:35:26;;;;;;;14.95;7.30;;;;;;;;;;5092810;28;20027;-57
2020/12/17 08:37:55;;;;;;;13.55;7.22;;;;;;;;;;5093574;28;20528;-54
2020/12/17 08:40:24;;;;;;;15.40;8.13;;;;;;;;;;5091090;28;20024;-56
2020/12/17 08:42:50;;;;;;;13.23;7.90;;;;;;;;;;5087084;28;20021;-55
2020/12/17 08:45:18;;;;;;;14.07;7.93;;;;;;;;;;5082043;28;20146;-56
2020/12/17 08:47:44;;;;;;;14.88;7.70;;;;;;;;;;5085884;28;20027;-57
2020/12/17 08:50:10;;;;;;;15.38;8.13;;;;;;;;;;5085022;28;20047;-56
2020/12/17 08:52:35;;;;;;;19.45;8.15;;;;;;;;;;5077963;28;20104;-56
2020/12/17 08:55:04;;;;;;;14.18;7.40;;;;;;;;;;5086003;28;20028;-57
2020/12/17 08:57:29;;;;;;;15.90;7.43;;;;;;;;;;5089154;28;20099;-55
2020/12/17 08:59:55;;;;;;;14.27;8.57;;;;;;;;;;5088610;28;20108;-57
2020/12/17 09:02:23;;;;;;;14.70;8.32;;;;;;;;;;5090371;28;20352;-55
2020/12/17 09:04:58;;;;;;;14.32;8.13;;;;;;;;;;5092669;28;20035;-56
2020/12/17 09:07:24;;;;;;;14.60;7.97;;;;;;;;;;5083783;28;20028;-55
2020/12/17 09:09:50;;;;;;;16.20;8.45;;;;;;;;;;5090147;28;20020;-52
2020/12/17 09:12:25;;;;;;;15.65;8.35;;;;;;;;;;5092438;28;20026;-53
2020/12/17 09:14:50;;;;;;;16.77;9.30;;;;;;;;;;5092796;28;20024;-57
2020/12/17 09:17:16;;;;;;;14.15;8.90;;;;;;;;;;5090878;28;20528;-55
2020/12/17 09:19:41;;;;;;;16.83;9.68;;;;;;;;;;5088814;28;20485;-54
2020/12/17 09:22:07;;;;;;;15.00;8.50;;;;;;;;;;5092721;28;20049;-56
2020/12/17 09:24:33;;;;;;;16.98;9.38;;;;;;;;;;5092126;28;20036;-57
2020/12/17 09:27:17;;;;;;;16.42;9.93;;;;;;;;;;5091490;28;20020;-57
2020/12/17 09:29:57;;;;;;;17.00;8.93;;;;;;;;;;5088156;28;20066;-58
2020/12/17 09:32:22;;;;;;;15.57;9.50;;;;;;;;;;5087245;28;20081;-57
2020/12/17 09:34:47;;;;;;;18.08;10.10;;;;;;;;;;5092626;28;20028;-56
2020/12/17 09:37:12;;;;;;;16.15;9.57;;;;;;;;;;5091240;28;20099;-57
2020/12/17 09:39:41;;;;;;;18.58;9.68;;;;;;;;;;5082205;28;20028;-55
2020/12/17 09:42:07;;;;;;;18.92;9.43;;;;;;;;;;5089028;28;20019;-55
2020/12/17 09:44:33;;;;;;;16.77;9.45;;;;;;;;;;5092375;28;20020;-57
2020/12/17 09:46:59;;;;;;;20.63;9.43;;;;;;;;;;5091617;28;20034;-54
2020/12/17 09:49:29;;;;;;;19.52;10.52;;;;;;;;;;5089322;28;20063;-54
2020/12/17 09:51:58;;;;;;;18.25;9.95;;;;;;;;;;5092001;28;20031;-56
2020/12/17 09:54:24;;;;;;;17.08;9.60;;;;;;;;;;5091809;28;20016;-52
2020/12/17 09:57:18;;;;;;;19.20;9.40;;;;;;;;;;5091978;28;20028;-57
2020/12/17 09:59:44;;;;;;;22.70;10.00;;;;;;;;;;5068596;28;20100;-57
2020/12/17 10:02:11;;;;;;;16.55;8.98;;;;;;;;;;5085791;28;20025;-56
2020/12/17 10:04:36;;;;;;;19.40;10.07;;;;;;;;;;5089835;28;20450;-55
2020/12/17 10:07:01;;;;;;;19.05;9.38;;;;;;;;;;5090608;28;20042;-57
2020/12/17 10:09:27;;;;;;;18.98;9.40;;;;;;;;;;5089207;28;20390;-55
2020/12/17 10:11:53;;;;;;;17.13;10.07;;;;;;;;;;5091996;28;20069;-58
2020/12/17 10:14:19;;;;;;;16.40;9.93;;;;;;;;;;5091526;28;20031;-57
2020/12/17 10:16:44;;;;;;;14.90;9.38;;;;;;;;;;5092318;28;20024;-57
2020/12/17 10:19:10;;;;;;;17.63;10.05;;;;;;;;;;5088443;28;20027;-57
2020/12/17 10:21:36;;;;;;;13.07;8.27;;;;;;;;;;5074890;28;20074;-57
2020/12/17 10:24:02;;;;;;;13.48;8.40;;;;;;;;;;5084625;28;20418;-57
2020/12/17 10:26:27;;;;;;;15.07;8.90;;;;;;;;;;5092483;28;20377;-56
2020/12/17 10:28:52;;;;;;;14.73;9.32;;;;;;;;;;5088507;28;20020;-57
2020/12/17 10:31:18;;;;;;;15.13;9.05;;;;;;;;;;5091100;28;20327;-56
2020/12/17 10:33:43;;;;;;;15.80;9.52;;;;;;;;;;5091632;28;20426;-57
2020/12/17 10:36:08;;;;;;;16.30;9.27;;;;;;;;;;5091694;28;20036;-57
2020/12/17 10:38:33;;;;;;;17.52;8.90;;;;;;;;;;5088581;28;20678;-58
2020/12/17 10:40:58;;;;;;;16.00;8.98;;;;;;;;;;5091554;28;20044;-57
2020/12/17 10:43:24;;;;;;;17.10;10.20;;;;;;;;;;5084973;28;20016;-57
2020/12/17 10:45:49;;;;;;;15.82;8.63;;;;;;;;;;5091384;28;20024;-58
2020/12/17 10:48:14;;;;;;;15.45;9.23;;;;;;;;;;5088894;28;20261;-53
2020/12/17 10:50:40;;;;;;;13.98;8.73;;;;;;;;;;5090550;28;20024;-55
2020/12/17 10:53:05;;;;;;;10.52;5.50;;;;;;;;;;5090546;28;20024;-56
2020/12/17 10:55:30;;;;;;;4.80;3.05;;;;;;;;;;5091547;28;20035;-58
2020/12/17 10:57:55;;;;;;;4.95;3.70;;;;;;;;;;5090707;28;20016;-56
2020/12/17 11:00:20;;;;;;;5.78;4.65;;;;;;;;;;5087620;28;20016;-54
2020/12/17 11:02:46;;;;;;;6.75;4.60;;;;;;;;;;5092409;28;20016;-53
2020/12/17 11:05:11;;;;;;;8.35;5.00;;;;;;;;;;5093603;28;20137;-57
2020/12/17 11:07:36;;;;;;;7.07;4.72;;;;;;;;;;5095567;28;20474;-56
2020/12/17 11:10:01;;;;;;;9.13;5.90;;;;;;;;;;5092314;28;20032;-53
2020/12/17 11:12:26;;;;;;;9.25;5.72;;;;;;;;;;5095501;28;20107;-55
2020/12/17 11:14:52;;;;;;;9.52;5.93;;;;;;;;;;5095208;28;20030;-57
2020/12/17 11:17:17;;;;;;;11.07;6.30;;;;;;;;;;5095139;28;20020;-56
2020/12/17 11:19:42;;;;;;;10.02;5.93;;;;;;;;;;5092160;28;20434;-56
2020/12/17 11:22:07;;;;;;;8.80;5.90;;;;;;;;;;5094923;28;20447;-55
2020/12/17 11:24:33;;;;;;;9.38;6.40;;;;;;;;;;5094517;28;20442;-55
2020/12/17 11:26:58;;;;;;;10.07;5.82;;;;;;;;;;5095238;28;20028;-56
2020/12/17 11:29:24;;;;;;;11.32;7.50;;;;;;;;;;5092194;28;20050;-56
2020/12/17 11:31:49;;;;;;;15.35;8.30;;;;;;;;;;5094872;28;20463;-55
2020/12/17 11:34:15;;;;;;;10.32;5.97;;;;;;;;;;5094989;28;20073;-55
2020/12/17 11:36:40;;;;;;;8.05;5.32;;;;;;;;;;5095081;28;20032;-57
2020/12/17 11:39:05;;;;;;;8.75;5.78;;;;;;;;;;5090564;28;20024;-55
2020/12/17 11:41:30;;;;;;;8.45;5.70;;;;;;;;;;5089892;28;20028;-57
2020/12/17 11:43:56;;;;;;;9.00;5.95;;;;;;;;;;5078524;28;20029;-58
2020/12/17 11:46:21;;;;;;;7.88;5.93;;;;;;;;;;5082721;28;20016;-57
2020/12/17 11:48:47;;;;;;;8.10;5.43;;;;;;;;;;5091280;28;20024;-57
2020/12/17 11:51:12;;;;;;;8.90;5.72;;;;;;;;;;5094861;28;20012;-57
2020/12/17 11:53:38;;;;;;;7.68;5.55;;;;;;;;;;5094437;28;20051;-57
2020/12/17 11:56:03;;;;;;;7.43;5.20;;;;;;;;;;5094841;28;20028;-56
2020/12/17 11:58:28;;;;;;;7.57;5.65;;;;;;;;;;5091494;28;20027;-57
2020/12/17 12:00:53;;;;;;;9.27;5.50;;;;;;;;;;5095532;28;20021;-58
2020/12/17 12:03:18;;;;;;;7.05;5.43;;;;;;;;;;5094491;28;20020;-57
2020/12/17 12:05:44;;;;;;;7.82;5.72;;;;;;;;;;5094750;28;20481;-58
2020/12/17 12:08:09;;;;;;;8.02;5.25;;;;;;;;;;5092573;28;20118;-54
2020/12/17 12:10:34;;;;;;;6.72;5.60;;;;;;;;;;5091723;28;20020;-57
2020/12/17 12:12:59;;;;;;;6.53;4.60;;;;;;;;;;5094245;28;20031;-58
2020/12/17 12:15:25;;;;;;;7.13;5.18;;;;;;;;;;5094106;28;20020;-54
2020/12/17 12:17:52;;;;;;;7.72;4.85;;;;;;;;;;5094099;28;20095;-58
2020/12/17 12:20:17;;;;;;;6.90;4.57;;;;;;;;;;5091392;28;20431;-58
2020/12/17 12:22:42;;;;;;;6.63;5.07;;;;;;;;;;5093670;28;20104;-57
2020/12/17 12:25:08;;;;;;;5.70;4.60;;;;;;;;;;5094208;28;20028;-57
2020/12/17 12:27:33;;;;;;;5.88;4.20;;;;;;;;;;5093193;28;20031;-56
2020/12/17 12:29:58;;;;;;;6.10;4.65;;;;;;;;;;5090825;28;20028;-56
2020/12/17 12:32:23;;;;;;;5.80;4.15;;;;;;;;;;5094794;28;20028;-56
2020/12/17 12:34:49;;;;;;;6.43;4.43;;;;;;;;;;5094102;28;20024;-58
2020/12/17 12:37:15;;;;;;;5.30;3.92;;;;;;;;;;5093152;28;20031;-55
2020/12/17 12:39:40;;;;;;;5.05;3.90;;;;;;;;;;5090691;28;20025;-56
2020/12/17 12:42:07;;;;;;;5.15;3.42;;;;;;;;;;5088040;28;20012;-54
2020/12/17 12:44:32;;;;;;;5.90;3.63;;;;;;;;;;5092403;28;20012;-56
2020/12/17 12:46:57;;;;;;;4.43;3.67;;;;;;;;;;5093100;28;20489;-58
2020/12/17 12:49:22;;;;;;;4.70;2.97;;;;;;;;;;5085845;28;20016;-57
2020/12/17 12:51:48;;;;;;;2.97;2.03;;;;;;;;;;5093056;28;20024;-56
2020/12/17 12:54:13;;;;;;;2.88;2.53;;;;;;;;;;5092972;28;20020;-56
2020/12/17 12:56:38;;;;;;;5.53;2.60;;;;;;;;;;5093700;28;20455;-57
2020/12/17 12:59:03;;;;;;;3.70;2.08;;;;;;;;;;5089865;28;20422;-58
2020/12/17 13:01:38;;;;;;;4.25;2.33;;;;;;;;;;5093211;28;20535;-57
2020/12/17 13:04:04;;;;;;;3.80;2.25;;;;;;;;;;5089483;28;20016;-59
2020/12/17 13:06:29;;;;;;;4.70;2.60;;;;;;;;;;5090206;28;20544;-56
2020/12/17 13:08:55;;;;;;;5.15;2.08;;;;;;;;;;5089645;28;20016;-57
2020/12/17 13:11:21;;;;;;;3.65;2.38;;;;;;;;;;5093313;28;20020;-57
2020/12/17 13:13:47;;;;;;;3.63;1.95;;;;;;;;;;5093201;28;20145;-56
2020/12/17 13:16:12;;;;;;;3.05;1.90;;;;;;;;;;5093611;28;20023;-55
2020/12/17 13:18:38;;;;;;;1.77;1.02;;;;;;;;;;5089897;28;20596;-57
2020/12/17 13:21:03;;;;;;;3.03;1.70;;;;;;;;;;5092391;28;20035;-56
2020/12/17 13:23:29;;;;;;;3.00;1.58;;;;;;;;;;5091171;28;20432;-56
2020/12/17 13:25:54;;;;;;;3.72;2.10;;;;;;;;;;5081187;28;20444;-56
2020/12/17 13:28:20;;;;;;;2.30;1.90;;;;;;;;;;5089958;28;20028;-56
2020/12/17 13:30:46;;;;;;;3.13;1.60;;;;;;;;;;5091471;28;20066;-57
2020/12/17 13:33:11;;;;;;;5.38;1.95;;;;;;;;;;5089425;28;20035;-57
2020/12/17 13:35:37;;;;;;;2.53;1.60;;;;;;;;;;5092543;28;20020;-56
2020/12/17 13:38:02;;;;;;;2.33;1.60;;;;;;;;;;5091694;28;20042;-57
2020/12/17 13:40:27;;;;;;;2.97;1.77;;;;;;;;;;5090308;28;20447;-57
2020/12/17 13:42:52;;;;;;;3.33;2.05;;;;;;;;;;5092294;28;20165;-57
2020/12/17 13:45:17;;;;;;;2.70;1.42;;;;;;;;;;5092598;28;20542;-57
2020/12/17 13:47:43;;;;;;;2.53;1.92;;;;;;;;;;5092140;28;20082;-55
2020/12/17 13:50:08;;;;;;;3.97;2.00;;;;;;;;;;5088913;28;20478;-56
2020/12/17 13:52:33;;;;;;;2.50;2.08;;;;;;;;;;5092301;28;20110;-55
2020/12/17 13:54:58;;;;;;;4.10;1.55;;;;;;;;;;5092151;28;20466;-57
2020/12/17 13:57:23;;;;;;;3.25;1.77;;;;;;;;;;5091193;28;20024;-59
2020/12/17 13:59:49;;;;;;;3.88;2.67;;;;;;;;;;5089061;28;20060;-58
2020/12/17 14:02:14;;;;;;;3.28;1.80;;;;;;;;;;5091747;28;20022;-57
2020/12/17 14:04:39;;;;;;;2.88;2.00;;;;;;;;;;5089828;28;20035;-58
2020/12/17 14:07:04;;;;;;;3.45;2.00;;;;;;;;;;5091295;28;20016;-55
2020/12/17 14:09:30;;;;;;;3.97;2.20;;;;;;;;;;5087058;28;20095;-56
2020/12/17 14:11:55;;;;;;;6.55;2.20;;;;;;;;;;5091452;28;20027;-58
2020/12/17 14:14:20;;;;;;;6.40;1.98;;;;;;;;;;5092448;28;20024;-58
2020/12/17 14:16:46;;;;;;;4.15;1.83;;;;;;;;;;5091152;28;20466;-55
2020/12/17 14:19:11;;;;;;;5.40;3.15;;;;;;;;;;5088552;28;20024;-57
2020/12/17 14:21:36;;;;;;;3.00;1.65;;;;;;;;;;5091067;28;20031;-55
2020/12/17 14:24:01;;;;;;;6.38;2.72;;;;;;;;;;5091658;28;20127;-56
2020/12/17 14:26:27;;;;;;;2.72;1.58;;;;;;;;;;5092449;28;20103;-53
2020/12/17 14:28:53;;;;;;;4.95;2.83;;;;;;;;;;5088789;28;20031;-56
2020/12/17 14:31:22;;;;;;;6.18;2.95;;;;;;;;;;5091413;28;20055;-54
2020/12/17 14:33:47;;;;;;;5.57;2.45;;;;;;;;;;5090573;28;20386;-56